Time;durP1;ratioP1;P1;durP2;ratioP2;P2;SDS_P1;SDS_P2;PMS_P1;PMS_P2;Temp;Humidity;BMP_temperature;BMP_pressure;BME280_temperature;BME280_humidity;BME280_pressure;Samples;Min_cycle;Max_cycle;Signal;HPM_P1;HPM_P2
2021/05/10 00:01:34;;;;;;;8.60;5.68;;;;;;;18.38;60.46;99198.97;5139725;27;20078;-83
2021/05/10 00:04:03;;;;;;;8.02;5.05;;;;;;;18.32;61.11;99202.22;5119257;27;20039;-83
2021/05/10 00:06:29;;;;;;;7.70;4.85;;;;;;;18.22;61.99;99201.44;5150477;27;20115;-84
2021/05/10 00:08:57;;;;;;;8.02;5.30;;;;;;;18.08;62.19;99194.75;5147194;27;20032;-82
2021/05/10 00:11:25;;;;;;;9.50;5.40;;;;;;;18.02;62.71;99198.03;5151536;27;20059;-82
2021/05/10 00:13:53;;;;;;;8.17;4.97;;;;;;;17.97;62.87;99207.47;5142743;27;20059;-82
2021/05/10 00:16:20;;;;;;;9.38;5.05;;;;;;;17.90;63.26;99203.72;5134743;27;20054;-82
2021/05/10 00:18:48;;;;;;;6.82;4.82;;;;;;;17.87;63.67;99211.06;5131303;27;20583;-83
2021/05/10 00:21:18;;;;;;;8.60;4.93;;;;;;;17.78;63.48;99203.91;5134595;27;20073;-82
2021/05/10 00:23:45;;;;;;;11.07;5.53;;;;;;;17.68;64.31;99205.75;5135262;27;20658;-82
2021/05/10 00:26:13;;;;;;;7.60;5.05;;;;;;;17.58;64.00;99204.06;5130741;27;20047;-82
2021/05/10 00:28:39;;;;;;;7.68;4.78;;;;;;;17.51;63.93;99210.00;5143697;27;20036;-82
2021/05/10 00:31:05;;;;;;;7.70;4.97;;;;;;;17.46;64.23;99203.41;5145776;27;20067;-82
2021/05/10 00:33:31;;;;;;;6.45;4.68;;;;;;;17.51;64.32;99210.00;5138859;27;20106;-83
2021/05/10 00:36:00;;;;;;;8.65;4.80;;;;;;;17.45;64.25;99199.91;5139211;27;20126;-83
2021/05/10 00:38:26;;;;;;;6.57;4.75;;;;;;;17.47;63.82;99211.28;5134446;27;20098;-83
2021/05/10 00:40:55;;;;;;;6.75;4.45;;;;;;;17.42;63.76;99208.19;5148553;27;20049;-83
2021/05/10 00:43:21;;;;;;;7.30;4.07;;;;;;;17.43;64.31;99217.06;5154514;27;20063;-83
2021/05/10 00:45:48;;;;;;;5.78;4.43;;;;;;;17.45;64.61;99215.09;5132571;27;20463;-83
2021/05/10 00:48:17;;;;;;;7.38;4.38;;;;;;;17.46;64.41;99222.16;5137158;27;20051;-83
2021/05/10 00:50:44;;;;;;;5.82;4.63;;;;;;;17.48;64.27;99217.47;5137712;27;20130;-83
2021/05/10 00:53:12;;;;;;;5.70;3.70;;;;;;;17.48;64.25;99212.97;5130073;27;20468;-83
2021/05/10 00:55:41;;;;;;;5.78;4.15;;;;;;;17.49;63.56;99208.44;5132704;27;20313;-83
2021/05/10 00:58:07;;;;;;;5.00;4.38;;;;;;;17.56;63.77;99211.41;5125556;27;20063;-83
2021/05/10 01:00:38;;;;;;;6.32;4.35;;;;;;;17.58;62.87;99207.59;5130704;27;20398;-83
2021/05/10 01:03:04;;;;;;;6.47;4.18;;;;;;;17.60;62.48;99205.63;5125251;27;20569;-83
2021/05/10 01:05:31;;;;;;;6.60;4.28;;;;;;;17.61;62.59;99209.16;5138117;27;20039;-83
2021/05/10 01:07:59;;;;;;;5.15;4.00;;;;;;;17.61;62.64;99203.78;5134890;27;20062;-83
2021/05/10 01:10:27;;;;;;;5.15;3.70;;;;;;;17.60;62.27;99207.47;5115477;27;20067;-82
2021/05/10 01:12:54;;;;;;;7.18;4.10;;;;;;;17.62;62.40;99222.38;5146630;27;20039;-82
2021/05/10 01:15:22;;;;;;;4.90;3.95;;;;;;;17.66;62.50;99220.28;5147948;27;20513;-82
2021/05/10 01:17:53;;;;;;;5.90;4.00;;;;;;;17.67;62.91;99209.44;5133760;27;20448;-82
2021/05/10 01:20:22;;;;;;;10.13;4.45;;;;;;;17.71;62.83;99207.31;5136170;27;20058;-83
2021/05/10 01:22:56;;;;;;;5.50;3.90;;;;;;;17.65;62.61;99198.00;5143841;27;20038;-82
2021/05/10 01:25:28;;;;;;;6.22;4.18;;;;;;;17.60;62.84;99196.75;5145026;27;20055;-82
2021/05/10 01:27:58;;;;;;;6.57;4.25;;;;;;;17.61;62.82;99201.13;5149667;27;20103;-82
2021/05/10 01:30:31;;;;;;;7.07;3.90;;;;;;;17.58;62.81;99185.34;5151882;27;20070;-82
2021/05/10 01:33:08;;;;;;;5.72;4.32;;;;;;;17.60;62.68;99184.22;5142344;27;20045;-82
2021/05/10 01:35:43;;;;;;;6.88;4.40;;;;;;;17.67;62.45;99188.00;5140693;28;20047;-82
2021/05/10 01:38:11;;;;;;;6.75;4.82;;;;;;;17.69;62.57;99178.00;5144722;27;20047;-81
2021/05/10 01:40:37;;;;;;;7.15;4.80;;;;;;;17.75;62.14;99184.63;5147592;27;20059;-82
2021/05/10 01:43:05;;;;;;;7.13;4.38;;;;;;;17.76;62.31;99195.19;5150950;28;20111;-83
2021/05/10 01:45:32;;;;;;;5.07;4.57;;;;;;;17.74;62.67;99188.28;5123604;28;20071;-83
2021/05/10 01:48:06;;;;;;;5.72;4.20;;;;;;;17.72;63.09;99190.25;5131881;28;20081;-82
2021/05/10 01:50:34;;;;;;;5.95;4.28;;;;;;;17.69;63.27;99183.34;5146383;28;20054;-82
2021/05/10 01:53:00;;;;;;;5.00;4.38;;;;;;;17.63;63.08;99175.88;5145128;28;20042;-82
2021/05/10 01:55:29;;;;;;;6.10;4.53;;;;;;;17.64;63.76;99169.56;5142209;28;20043;-83
2021/05/10 01:57:59;;;;;;;5.85;4.53;;;;;;;17.60;63.58;99160.13;5146205;28;20035;-82
2021/05/10 02:00:35;;;;;;;6.53;4.30;;;;;;;17.55;63.85;99146.31;5145326;27;20027;-81
2021/05/10 02:03:21;;;;;;;5.82;4.70;;;;;;;17.56;64.32;99145.34;5128039;28;20055;-82
2021/05/10 02:05:51;;;;;;;7.43;4.43;;;;;;;17.51;64.04;99116.31;5136639;28;20066;-83
2021/05/10 02:08:19;;;;;;;5.75;4.88;;;;;;;17.51;63.70;99083.38;5139114;27;20051;-83
2021/05/10 02:10:51;;;;;;;5.38;4.20;;;;;;;17.56;63.16;99067.72;5116657;27;20070;-83
2021/05/10 02:13:21;;;;;;;5.55;4.22;;;;;;;17.56;62.98;99058.84;5140650;27;20058;-83
2021/05/10 02:15:53;;;;;;;6.30;4.53;;;;;;;17.69;62.50;99067.38;5150665;27;20047;-83
2021/05/10 02:18:23;;;;;;;7.05;4.20;;;;;;;17.74;62.13;99068.63;5150653;27;20104;-82
2021/05/10 02:20:50;;;;;;;7.20;4.50;;;;;;;17.79;61.69;99062.81;5151871;27;20059;-83
2021/05/10 02:23:21;;;;;;;5.30;4.45;;;;;;;17.81;61.50;99052.78;5147563;27;20043;-83
2021/05/10 02:25:51;;;;;;;6.53;4.93;;;;;;;17.86;60.97;99042.47;5148281;27;20046;-83
2021/05/10 02:28:20;;;;;;;6.63;5.20;;;;;;;17.91;60.78;99028.66;5147898;27;20104;-84
2021/05/10 02:30:47;;;;;;;4.95;4.45;;;;;;;17.93;60.87;99027.50;5149587;27;20043;-83
2021/05/10 02:33:16;;;;;;;6.28;5.10;;;;;;;17.90;60.55;99010.91;5141707;27;20078;-82
2021/05/10 02:35:44;;;;;;;7.85;4.80;;;;;;;17.93;60.51;99019.47;5135621;27;20069;-82
2021/05/10 02:38:14;;;;;;;8.07;4.82;;;;;;;17.95;60.59;99019.28;5133644;27;20039;-82
2021/05/10 02:40:40;;;;;;;6.60;4.70;;;;;;;17.91;60.79;99018.78;5132197;27;20130;-82
2021/05/10 02:43:08;;;;;;;5.90;4.82;;;;;;;17.88;61.17;99025.28;5136294;27;20043;-84
2021/05/10 02:45:36;;;;;;;6.55;4.90;;;;;;;17.85;61.70;99036.28;5143408;27;20055;-82
2021/05/10 02:48:05;;;;;;;5.07;4.57;;;;;;;17.78;61.89;99034.38;5122990;27;20068;-83
2021/05/10 02:50:32;;;;;;;7.57;4.80;;;;;;;17.76;62.30;99045.22;5144797;27;20044;-82
2021/05/10 02:53:01;;;;;;;5.95;4.80;;;;;;;17.67;62.58;99034.56;5148320;27;20274;-82
2021/05/10 02:55:30;;;;;;;5.80;4.60;;;;;;;17.60;63.08;99039.66;5140279;27;20056;-82
2021/05/10 02:57:57;;;;;;;6.13;5.05;;;;;;;17.45;63.36;99025.09;5127143;27;20122;-83
2021/05/10 03:00:27;;;;;;;7.40;4.97;;;;;;;17.47;63.74;99049.88;5140776;27;20047;-83
2021/05/10 03:02:56;;;;;;;6.25;5.20;;;;;;;17.38;64.08;99056.94;5131584;27;20047;-82
2021/05/10 03:05:25;;;;;;;6.47;5.00;;;;;;;17.27;64.42;99072.34;5133770;27;20067;-84
2021/05/10 03:07:53;;;;;;;6.85;4.82;;;;;;;17.33;64.59;99093.16;5135167;27;20043;-83
2021/05/10 03:10:22;;;;;;;5.22;4.72;;;;;;;17.29;64.76;99092.63;5129277;27;20130;-84
2021/05/10 03:12:49;;;;;;;7.70;5.20;;;;;;;17.25;64.94;99098.41;5127532;27;20532;-84
2021/05/10 03:15:17;;;;;;;6.07;5.00;;;;;;;17.11;65.24;99091.69;5132875;27;20062;-83
2021/05/10 03:17:46;;;;;;;6.17;4.90;;;;;;;17.15;65.17;99110.00;5134741;27;20050;-84
2021/05/10 03:20:14;;;;;;;5.72;4.70;;;;;;;17.07;65.51;99107.16;5127221;27;20118;-84
2021/05/10 03:22:41;;;;;;;7.97;4.60;;;;;;;17.07;65.92;99115.19;5131630;27;20490;-84
2021/05/10 03:25:09;;;;;;;5.55;4.85;;;;;;;17.00;66.00;99118.59;5134041;27;20543;-84
2021/05/10 03:27:39;;;;;;;6.60;5.07;;;;;;;16.98;66.24;99136.63;5128871;27;20065;-83
2021/05/10 03:30:18;;;;;;;6.00;4.45;;;;;;;17.00;66.46;99145.34;5116419;27;20039;-83
2021/05/10 03:32:52;;;;;;;5.45;4.75;;;;;;;16.99;66.39;99149.84;5123365;27;20035;-83
2021/05/10 03:35:19;;;;;;;7.20;4.63;;;;;;;16.99;66.22;99147.19;5128189;27;20112;-83
2021/05/10 03:37:46;;;;;;;5.82;4.88;;;;;;;17.00;66.41;99148.84;5128530;27;20073;-83
2021/05/10 03:40:19;;;;;;;7.80;4.85;;;;;;;16.97;66.48;99148.31;5131265;27;20039;-83
2021/05/10 03:42:48;;;;;;;8.18;4.50;;;;;;;16.99;66.55;99141.84;5132286;27;20051;-83
2021/05/10 03:45:15;;;;;;;5.25;4.03;;;;;;;16.94;66.21;99140.56;5130283;27;20050;-83
2021/05/10 03:47:44;;;;;;;7.18;4.63;;;;;;;16.91;66.18;99135.50;5112916;27;20051;-83
2021/05/10 03:50:16;;;;;;;6.40;4.10;;;;;;;16.83;66.26;99136.22;5138389;27;20114;-83
2021/05/10 03:52:44;;;;;;;5.32;4.50;;;;;;;16.76;67.08;99133.25;5112709;27;20039;-83
2021/05/10 03:55:14;;;;;;;6.25;4.55;;;;;;;16.71;67.27;99135.50;5133390;27;20067;-83
2021/05/10 03:57:44;;;;;;;5.82;4.60;;;;;;;16.69;67.55;99136.63;5129594;27;20131;-83
2021/05/10 04:00:13;;;;;;;6.05;4.50;;;;;;;16.71;67.82;99129.31;5132048;27;20040;-83
2021/05/10 04:02:39;;;;;;;7.32;4.95;;;;;;;16.73;67.50;99140.72;5115194;27;20463;-83
2021/05/10 04:05:24;;;;;;;8.40;5.00;;;;;;;16.71;67.95;99131.97;5138272;27;20039;-83
2021/05/10 04:15:32;;;;;;;5.03;4.53;;;;;;;16.77;68.43;99152.81;5143044;27;20065;-83
2021/05/10 04:17:58;;;;;;;5.97;4.60;;;;;;;16.82;68.16;99155.91;5147283;27;20043;-83
2021/05/10 04:20:25;;;;;;;6.05;4.78;;;;;;;16.81;68.00;99159.56;5149276;27;20114;-84
2021/05/10 04:22:51;;;;;;;6.72;4.70;;;;;;;16.81;67.77;99168.44;5147726;27;20061;-83
2021/05/10 04:25:18;;;;;;;6.68;4.82;;;;;;;16.75;67.80;99170.81;5148578;27;20050;-83
2021/05/10 04:27:52;;;;;;;8.93;5.15;;;;;;;16.72;68.21;99163.91;5138305;27;20031;-83
2021/05/10 04:30:19;;;;;;;5.95;4.57;;;;;;;16.67;68.34;99162.69;5151325;27;20058;-83
2021/05/10 04:32:45;;;;;;;4.75;4.20;;;;;;;16.58;68.41;99156.28;5133246;27;20043;-84
2021/05/10 04:35:12;;;;;;;6.30;5.13;;;;;;;16.52;68.23;99148.00;5136481;27;20068;-83
2021/05/10 04:37:38;;;;;;;5.20;4.60;;;;;;;16.52;68.57;99151.53;5111842;27;20146;-82
2021/05/10 04:40:05;;;;;;;6.68;5.10;;;;;;;16.54;69.05;99251.09;5135046;27;20103;-82
2021/05/10 04:42:35;;;;;;;7.80;4.95;;;;;;;16.77;69.27;99364.00;5142560;27;20040;-82
2021/05/10 04:45:01;;;;;;;6.80;4.93;;;;;;;16.72;69.12;99342.19;5147942;27;20047;-82
2021/05/10 04:47:36;;;;;;;5.85;5.18;;;;;;;16.70;69.10;99336.97;5135055;27;20084;-82
2021/05/10 04:50:09;;;;;;;7.45;5.18;;;;;;;16.70;69.28;99350.34;5130662;27;20047;-82
2021/05/10 04:52:36;;;;;;;7.75;5.15;;;;;;;16.77;69.36;99358.66;5109560;27;20043;-82
2021/05/10 04:55:07;;;;;;;5.53;4.95;;;;;;;16.81;68.99;99346.72;5114633;27;20099;-84
2021/05/10 04:57:33;;;;;;;5.53;4.97;;;;;;;16.90;68.62;99342.38;5129865;27;20050;-82
2021/05/10 04:59:59;;;;;;;7.53;5.18;;;;;;;16.96;68.52;99333.81;5131102;27;20126;-83
2021/05/10 05:02:25;;;;;;;6.80;4.80;;;;;;;17.01;67.78;99332.38;5125680;27;20047;-82
2021/05/10 05:04:53;;;;;;;8.20;5.03;;;;;;;17.11;68.00;99337.78;5129885;27;20051;-82
2021/05/10 05:07:19;;;;;;;6.47;4.82;;;;;;;17.17;68.02;99332.69;5132641;27;20125;-83
2021/05/10 05:09:45;;;;;;;5.00;4.53;;;;;;;17.23;68.19;99322.44;5132418;27;20045;-82
2021/05/10 05:12:11;;;;;;;7.13;5.00;;;;;;;17.24;67.87;99324.13;5112438;27;20051;-83
2021/05/10 05:14:39;;;;;;;5.07;4.47;;;;;;;17.27;67.97;99321.16;5111851;27;20106;-83
2021/05/10 05:17:05;;;;;;;8.38;4.70;;;;;;;17.39;68.05;99342.28;5127900;27;20509;-83
2021/05/10 05:19:31;;;;;;;4.82;4.30;;;;;;;17.44;68.20;99329.34;5113749;27;20067;-82
2021/05/10 05:21:58;;;;;;;7.85;5.03;;;;;;;17.54;68.14;99334.69;5146343;27;20039;-82
2021/05/10 05:24:27;;;;;;;8.38;4.82;;;;;;;17.66;68.59;99325.53;5133501;27;20051;-83
2021/05/10 05:26:55;;;;;;;7.40;5.13;;;;;;;17.80;68.98;99322.41;5143018;27;20050;-82
2021/05/10 05:29:24;;;;;;;7.95;4.68;;;;;;;17.90;68.00;99310.84;5142452;27;20200;-83
2021/05/10 05:31:51;;;;;;;9.75;5.35;;;;;;;17.91;67.50;99321.41;5149021;27;20078;-82
2021/05/10 05:34:19;;;;;;;8.65;5.30;;;;;;;18.00;68.21;99333.94;5149828;27;20046;-82
2021/05/10 05:36:45;;;;;;;8.02;5.30;;;;;;;18.10;67.58;99323.22;5148894;27;20111;-82
2021/05/10 05:39:11;;;;;;;6.82;4.68;;;;;;;18.29;66.49;99325.78;5147520;27;20035;-82
2021/05/10 05:41:38;;;;;;;5.75;5.03;;;;;;;18.49;64.15;99342.66;5144853;28;20035;-83
2021/05/10 05:44:06;;;;;;;6.90;4.40;;;;;;;18.61;62.65;99351.38;5131602;27;20047;-82
2021/05/10 05:46:44;;;;;;;5.47;3.97;;;;;;;18.70;61.15;99351.34;5154748;27;20047;-82
2021/05/10 05:49:10;;;;;;;5.60;4.03;;;;;;;18.80;61.05;99353.97;5147489;27;20041;-83
2021/05/10 05:51:37;;;;;;;7.97;4.60;;;;;;;18.90;59.93;99363.63;5146748;27;20077;-83
2021/05/10 05:54:03;;;;;;;4.65;3.67;;;;;;;19.06;60.27;99367.50;5117489;27;20067;-83
2021/05/10 05:56:31;;;;;;;7.38;4.60;;;;;;;19.13;58.73;99364.06;5137282;27;20166;-83
2021/05/10 05:58:58;;;;;;;6.82;4.70;;;;;;;19.16;58.28;99362.94;5139913;27;20053;-84
2021/05/10 06:01:25;;;;;;;8.32;4.07;;;;;;;19.24;57.78;99363.84;5141444;27;20077;-83
2021/05/10 06:03:55;;;;;;;5.13;3.95;;;;;;;19.28;58.18;99384.03;5117863;27;20055;-84
2021/05/10 06:06:38;;;;;;;6.95;4.00;;;;;;;19.28;58.25;99384.03;5132181;27;20047;-83
2021/05/10 06:09:09;;;;;;;9.77;4.10;;;;;;;19.19;58.04;99395.69;5135443;27;20053;-84
2021/05/10 06:11:38;;;;;;;8.70;4.50;;;;;;;19.25;58.02;99397.75;5141043;27;20047;-85
2021/05/10 06:14:09;;;;;;;6.35;3.40;;;;;;;19.37;57.25;99392.16;5143798;27;20035;-83
2021/05/10 06:16:37;;;;;;;9.15;3.47;;;;;;;19.53;57.36;99409.31;5126553;27;20081;-84
2021/05/10 06:19:08;;;;;;;5.45;3.13;;;;;;;19.65;57.77;99430.59;5140704;27;20072;-83
2021/05/10 06:21:34;;;;;;;5.28;3.47;;;;;;;19.65;56.84;99428.75;5136212;27;20173;-83
2021/05/10 06:24:00;;;;;;;7.07;3.22;;;;;;;19.66;57.39;99422.38;5135263;27;20047;-85
2021/05/10 06:26:27;;;;;;;5.18;3.00;;;;;;;19.63;57.57;99393.13;5136224;27;20111;-83
2021/05/10 06:28:56;;;;;;;6.88;3.40;;;;;;;19.85;59.05;99410.59;5134403;27;20046;-84
2021/05/10 06:31:22;;;;;;;5.13;2.60;;;;;;;20.02;58.08;99422.31;5127459;27;20067;-84
2021/05/10 06:33:48;;;;;;;15.00;4.32;;;;;;;20.12;56.81;99417.72;5115442;27;20718;-83
2021/05/10 06:36:14;;;;;;;8.35;3.05;;;;;;;20.25;55.72;99418.16;5117129;27;20096;-85
2021/05/10 06:38:40;;;;;;;14.23;3.63;;;;;;;20.41;55.25;99417.44;5131935;27;20512;-84
2021/05/10 06:41:07;;;;;;;11.00;3.03;;;;;;;20.43;54.07;99421.69;5132006;27;20039;-84
2021/05/10 06:43:34;;;;;;;5.75;3.05;;;;;;;20.46;54.86;99424.03;5114700;27;20107;-84
2021/05/10 06:46:02;;;;;;;3.40;2.97;;;;;;;20.57;54.45;99420.25;5135544;27;20040;-83
2021/05/10 06:48:29;;;;;;;5.72;2.90;;;;;;;20.70;54.28;99427.88;5133965;27;20654;-83
2021/05/10 06:50:56;;;;;;;5.20;2.60;;;;;;;20.88;53.60;99439.41;5117040;27;20127;-83
2021/05/10 06:53:26;;;;;;;;;;;;;;;22.01;49.72;99437.06;5134825;27;20039;-83
2021/05/10 06:55:59;;;;;;;9.23;5.32;;;;;;;23.04;47.04;99405.66;5122604;27;20042;-83
2021/05/10 06:58:28;;;;;;;6.13;2.40;;;;;;;24.30;45.07;99411.59;5117516;27;20051;-83
2021/05/10 07:00:57;;;;;;;4.70;2.67;;;;;;;24.20;44.34;99410.16;5116277;28;20069;-84
2021/05/10 07:03:23;;;;;;;7.88;2.42;;;;;;;24.13;44.52;99415.44;5113377;27;20043;-83
2021/05/10 07:05:50;;;;;;;4.60;2.70;;;;;;;24.19;44.71;99419.28;5132525;27;20043;-83
2021/05/10 07:08:18;;;;;;;5.32;2.60;;;;;;;23.85;44.55;99417.88;5134021;27;20058;-83
2021/05/10 07:10:50;;;;;;;3.45;2.38;;;;;;;23.32;44.59;99421.41;5136890;27;20071;-83
2021/05/10 07:13:17;;;;;;;4.40;1.70;;;;;;;22.74;45.93;99426.16;5134397;27;20059;-84
2021/05/10 07:15:43;;;;;;;4.72;2.53;;;;;;;22.21;47.37;99420.53;5114117;27;20123;-84
2021/05/10 07:18:14;;;;;;;2.92;1.92;;;;;;;21.81;48.94;99438.38;5130648;27;20142;-83
2021/05/10 07:20:43;;;;;;;7.15;2.42;;;;;;;21.54;49.87;99438.66;5136089;27;20071;-82
2021/05/10 07:23:15;;;;;;;4.70;2.22;;;;;;;21.42;49.79;99442.66;5134487;27;20051;-82
2021/05/10 07:25:46;;;;;;;3.00;2.08;;;;;;;21.39;50.14;99434.94;5119052;27;20156;-82
2021/05/10 07:28:15;;;;;;;2.92;1.92;;;;;;;21.42;50.31;99445.34;5114909;27;20073;-84
2021/05/10 07:30:49;;;;;;;4.63;2.17;;;;;;;21.39;50.18;99446.53;5137556;27;20043;-84
2021/05/10 07:33:16;;;;;;;2.97;2.08;;;;;;;21.27;50.96;99434.38;5131999;27;20071;-85
2021/05/10 07:35:42;;;;;;;5.47;2.25;;;;;;;21.21;50.60;99445.81;5139545;27;20080;-83
2021/05/10 07:38:09;;;;;;;4.03;2.05;;;;;;;21.41;51.67;99446.38;5133934;27;20126;-82
2021/05/10 07:40:38;;;;;;;3.78;2.10;;;;;;;21.76;49.60;99434.47;5140722;27;20078;-83
2021/05/10 07:43:07;;;;;;;3.55;2.05;;;;;;;22.62;47.16;99454.53;5140874;27;20428;-84
2021/05/10 07:45:35;;;;;;;3.88;2.20;;;;;;;23.01;45.62;99459.19;5137618;27;20089;-83
2021/05/10 07:48:03;;;;;;;4.10;2.50;;;;;;;23.02;45.52;99447.34;5142915;27;20103;-84
2021/05/10 07:50:32;;;;;;;6.15;2.05;;;;;;;23.10;45.71;99447.34;5144132;27;20050;-85
2021/05/10 07:52:59;;;;;;;4.43;2.20;;;;;;;23.07;45.32;99450.38;5128368;27;20051;-85
2021/05/10 07:55:25;;;;;;;6.00;2.30;;;;;;;23.26;45.89;99455.38;5149320;27;20043;-84
2021/05/10 07:57:54;;;;;;;2.50;1.77;;;;;;;23.68;45.21;99446.03;5132665;27;20043;-85
2021/05/10 08:00:31;;;;;;;4.78;2.42;;;;;;;24.64;42.40;99476.06;5149466;27;20557;-81
2021/05/10 08:03:11;;;;;;;5.23;2.33;;;;;;;24.58;41.20;99478.66;5149313;27;20039;-81
2021/05/10 08:05:40;;;;;;;2.70;2.03;;;;;;;24.05;42.59;99475.03;5136815;27;20073;-83
2021/05/10 08:08:13;;;;;;;3.63;1.77;;;;;;;23.61;44.14;99477.53;5142337;27;20074;-83
2021/05/10 08:10:41;;;;;;;6.78;2.33;;;;;;;23.13;44.76;99487.50;5136483;27;20126;-85
2021/05/10 08:13:07;;;;;;;5.90;2.47;;;;;;;22.70;45.69;99500.38;5119760;28;20108;-84
2021/05/10 08:15:33;;;;;;;4.88;1.95;;;;;;;22.36;46.47;99497.03;5117840;27;20071;-83
2021/05/10 08:18:00;;;;;;;8.73;2.65;;;;;;;22.13;46.63;99509.53;5148044;27;20129;-82
2021/05/10 08:20:38;;;;;;;4.07;2.40;;;;;;;21.97;47.42;99515.72;5145672;27;20096;-83
2021/05/10 08:23:08;;;;;;;3.25;1.50;;;;;;;21.91;47.33;99510.97;5138003;27;20082;-83
2021/05/10 08:25:34;;;;;;;5.43;1.95;;;;;;;21.95;47.17;99504.25;5123461;27;20081;-83
2021/05/10 08:28:02;;;;;;;4.00;1.40;;;;;;;22.13;46.72;99509.53;5141005;27;20752;-83
2021/05/10 08:30:28;;;;;;;4.85;1.50;;;;;;;22.12;45.96;99499.75;5121077;27;20047;-82
2021/05/10 08:32:57;;;;;;;7.47;1.45;;;;;;;22.03;45.95;99494.38;5114705;27;20493;-82
2021/05/10 08:35:26;;;;;;;2.33;1.47;;;;;;;21.89;46.77;99496.81;5135719;27;20435;-83
2021/05/10 08:37:58;;;;;;;4.70;1.85;;;;;;;22.04;46.42;99505.97;5137783;27;20492;-84
2021/05/10 08:40:25;;;;;;;2.33;1.13;;;;;;;21.86;46.44;99506.09;5118406;27;20047;-83
2021/05/10 08:42:53;;;;;;;2.55;1.35;;;;;;;21.73;46.99;99496.78;5134839;27;20108;-82
2021/05/10 08:45:21;;;;;;;4.95;1.63;;;;;;;21.79;47.68;99507.75;5119262;27;20042;-83
2021/05/10 08:47:48;;;;;;;2.80;1.05;;;;;;;21.75;47.34;99502.84;5141699;27;20063;-83
2021/05/10 08:50:18;;;;;;;4.28;1.42;;;;;;;21.72;48.12;99506.75;5133215;27;20043;-84
2021/05/10 08:52:46;;;;;;;3.83;1.40;;;;;;;21.87;48.26;99518.56;5139111;27;20050;-82
2021/05/10 08:55:17;;;;;;;2.55;1.38;;;;;;;21.98;48.87;99514.69;5119535;27;20062;-82
2021/05/10 08:57:44;;;;;;;3.47;1.27;;;;;;;22.24;47.66;99509.19;5145537;27;20043;-82
2021/05/10 09:00:16;;;;;;;3.47;1.40;;;;;;;22.44;46.65;99507.00;5123486;27;20464;-84
2021/05/10 09:02:44;;;;;;;3.20;1.50;;;;;;;22.70;45.33;99518.44;5136545;27;20272;-84
2021/05/10 09:05:20;;;;;;;3.47;1.10;;;;;;;22.92;44.46;99516.94;5113647;27;20044;-84
2021/05/10 09:08:08;;;;;;;1.30;0.80;;;;;;;23.11;42.07;99511.16;5135491;27;20107;-83
2021/05/10 09:10:36;;;;;;;3.63;1.00;;;;;;;23.23;42.10;99514.31;5133612;27;20484;-86
2021/05/10 09:13:02;;;;;;;2.42;0.90;;;;;;;23.31;41.12;99515.09;5119925;28;20043;-86
2021/05/10 09:15:31;;;;;;;1.80;0.70;;;;;;;23.09;40.66;99502.38;5142109;27;20047;-84
2021/05/10 09:18:01;;;;;;;0.73;0.63;;;;;;;23.02;41.47;99496.81;5117635;27;20473;-85
2021/05/10 09:20:33;;;;;;;2.88;0.77;;;;;;;23.02;41.61;99504.06;5141784;27;20069;-84
2021/05/10 09:23:04;;;;;;;2.55;1.00;;;;;;;23.07;42.17;99507.94;5143597;27;20104;-86
2021/05/10 09:25:38;;;;;;;5.20;1.13;;;;;;;23.23;41.47;99531.34;5137383;27;20047;-85
2021/05/10 09:28:14;;;;;;;3.95;1.20;;;;;;;23.43;41.19;99532.63;5142712;27;20066;-85
2021/05/10 09:31:01;;;;;;;5.78;0.90;;;;;;;23.38;41.33;99532.31;5139918;27;20039;-85
2021/05/10 09:33:48;;;;;;;2.90;1.33;;;;;;;23.30;40.70;99535.03;5145918;27;20043;-85
2021/05/10 09:36:37;;;;;;;3.20;1.08;;;;;;;23.09;41.17;99550.97;5180486;22;20039;-85
2021/05/10 09:39:08;;;;;;;1.35;0.60;;;;;;;22.85;41.39;99554.56;4986330;28;20274;-84
2021/05/10 09:42:05;;;;;;;2.40;0.73;;;;;;;22.52;42.09;99552.84;5080488;22;20057;-85
2021/05/10 09:44:43;;;;;;;3.38;0.80;;;;;;;22.12;42.49;99577.94;5023232;28;20053;-85
2021/05/10 09:47:20;;;;;;;2.35;0.73;;;;;;;21.80;43.22;99571.44;5042305;28;20186;-85
2021/05/10 09:49:49;;;;;;;3.92;0.90;;;;;;;21.77;44.07;99582.53;5038264;28;20049;-87
2021/05/10 09:52:27;;;;;;;2.60;0.85;;;;;;;21.71;44.36;99577.81;5036336;28;20119;-86
2021/05/10 09:54:57;;;;;;;4.60;1.13;;;;;;;21.61;45.00;99577.91;5039132;28;20055;-85
2021/05/10 09:57:29;;;;;;;1.90;0.85;;;;;;;21.48;44.97;99587.47;5048487;28;20046;-85
2021/05/10 10:00:25;;;;;;;2.08;0.73;;;;;;;21.54;45.11;99606.53;5045766;28;20127;-83
2021/05/10 10:02:55;;;;;;;1.63;0.60;;;;;;;21.65;44.99;99616.16;5031821;28;20135;-83
2021/05/10 10:05:22;;;;;;;1.10;0.63;;;;;;;21.62;45.09;99638.03;5023526;28;20120;-83
2021/05/10 10:07:55;;;;;;;0.68;0.50;;;;;;;21.44;45.81;99656.13;5034571;28;20059;-83
2021/05/10 10:10:24;;;;;;;2.22;0.88;;;;;;;21.25;46.16;99663.41;5044013;28;20049;-84
2021/05/10 10:12:51;;;;;;;1.40;0.90;;;;;;;21.09;46.93;99655.22;5024431;28;20041;-83
2021/05/10 10:15:21;;;;;;;2.03;0.90;;;;;;;21.02;47.16;99668.44;5036631;28;20060;-83
2021/05/10 10:17:51;;;;;;;1.85;0.90;;;;;;;20.89;47.38;99654.53;5042711;28;20538;-83
2021/05/10 10:20:21;;;;;;;;;;;;;;;20.91;47.31;99662.47;5026498;28;20107;-83
2021/05/10 10:22:50;;;;;;;0.77;0.60;;;;;;;20.90;47.69;99658.94;5037442;28;19982;-83
2021/05/10 10:25:19;;;;;;;3.35;0.82;;;;;;;20.89;47.63;99659.06;5021797;28;20093;-83
2021/05/10 10:28:08;;;;;;;3.60;0.60;;;;;;;20.98;47.55;99663.50;5034154;28;20057;-84
2021/05/10 10:30:40;;;;;;;2.78;0.80;;;;;;;21.17;46.78;99684.88;5038646;28;20109;-84
2021/05/10 10:33:18;;;;;;;1.85;0.60;;;;;;;21.16;46.48;99667.03;5013435;28;20042;-84
2021/05/10 10:35:46;;;;;;;1.75;0.70;;;;;;;21.24;46.51;99659.06;5011507;28;20049;-84
2021/05/10 10:38:13;;;;;;;1.08;0.68;;;;;;;21.67;46.09;99659.97;5037178;28;20056;-84
2021/05/10 10:40:41;;;;;;;1.77;0.73;;;;;;;22.17;45.40;99664.59;5040014;28;20054;-82
2021/05/10 10:43:42;;;;;;;2.17;0.60;;;;;;;22.73;44.57;99659.28;5019565;28;20038;-85
2021/05/10 10:46:26;;;;;;;3.60;0.70;;;;;;;22.91;43.66;99661.03;5015389;28;20042;-83
2021/05/10 10:48:57;;;;;;;2.17;0.80;;;;;;;22.90;43.34;99667.44;5052394;28;20054;-83
2021/05/10 10:51:51;;;;;;;1.05;0.80;;;;;;;22.76;43.62;99660.81;5040841;28;20077;-84
2021/05/10 10:54:24;;;;;;;1.85;0.75;;;;;;;22.57;44.20;99664.69;5046714;28;20079;-84
2021/05/10 10:57:00;;;;;;;2.08;0.70;;;;;;;22.50;44.58;99666.38;5044987;28;20041;-83
2021/05/10 10:59:36;;;;;;;2.78;0.80;;;;;;;22.38;44.11;99659.56;5045313;28;20071;-84
2021/05/10 11:02:24;;;;;;;1.58;0.80;;;;;;;22.45;43.66;99643.59;5053352;28;20112;-84
2021/05/10 11:05:13;;;;;;;1.58;0.70;;;;;;;22.64;43.36;99638.72;5053415;28;20077;-84
2021/05/10 11:08:03;;;;;;;2.97;0.80;;;;;;;22.91;42.61;99656.47;5041405;28;20033;-85
2021/05/10 11:10:59;;;;;;;2.50;0.80;;;;;;;23.01;42.40;99670.63;5055964;28;20104;-85
2021/05/10 11:13:30;;;;;;;2.40;0.70;;;;;;;22.93;42.32;99670.66;5043639;28;20037;-83
2021/05/10 11:16:07;;;;;;;2.50;0.63;;;;;;;22.84;42.09;99695.09;5036960;28;20065;-84
2021/05/10 11:18:48;;;;;;;1.20;0.60;;;;;;;22.83;43.00;99685.31;5044008;28;20067;-83
2021/05/10 11:21:24;;;;;;;1.38;0.60;;;;;;;22.83;43.13;99682.59;5038992;28;20175;-84
2021/05/10 11:23:51;;;;;;;1.02;0.68;;;;;;;22.94;44.22;99693.94;5032750;28;20042;-86
2021/05/10 11:26:46;;;;;;;1.98;0.50;;;;;;;22.97;44.85;99703.56;5040281;28;20089;-84
2021/05/10 11:29:25;;;;;;;3.53;0.73;;;;;;;22.77;44.63;99708.44;5046890;28;20064;-83
2021/05/10 11:32:11;;;;;;;3.90;0.90;;;;;;;22.54;44.83;99704.63;5046630;28;20045;-84
2021/05/10 11:34:39;;;;;;;2.58;0.68;;;;;;;22.47;44.99;99695.53;5047627;28;20056;-82
2021/05/10 11:37:07;;;;;;;1.63;0.63;;;;;;;22.35;45.54;99686.91;5038706;28;20755;-85
2021/05/10 11:39:37;;;;;;;2.58;0.60;;;;;;;22.51;46.49;99678.00;5040344;28;20064;-84
2021/05/10 11:42:10;;;;;;;0.85;0.68;;;;;;;22.73;45.57;99666.56;5032899;28;20162;-86
2021/05/10 11:44:38;;;;;;;1.35;0.60;;;;;;;22.83;45.11;99664.56;5034256;28;20076;-85
2021/05/10 11:47:25;;;;;;;2.13;0.63;;;;;;;22.95;44.86;99651.59;5030605;28;20506;-86
2021/05/10 11:49:53;;;;;;;2.33;0.55;;;;;;;22.96;44.20;99654.13;5037608;28;20049;-85
2021/05/10 11:52:24;;;;;;;4.45;1.10;;;;;;;22.87;44.33;99678.56;5038017;28;20077;-85
2021/05/10 11:54:54;;;;;;;1.33;0.60;;;;;;;22.72;44.07;99703.50;5037526;28;20052;-85
2021/05/10 11:57:29;;;;;;;2.35;0.68;;;;;;;22.44;44.37;99717.44;5034773;28;20054;-84